Time;durP1;ratioP1;P1;durP2;ratioP2;P2;SDS_P1;SDS_P2;PMS_P1;PMS_P2;Temp;Humidity;BMP_temperature;BMP_pressure;BME280_temperature;BME280_humidity;BME280_pressure;Samples;Min_cycle;Max_cycle;Signal;HPM_P1;HPM_P2
2023/10/31 00:00:50;;;;;;;8.73;7.57;;;;;;;11.55;100.00;99093.41;4962193;28;20475;-77
2023/10/31 00:03:15;;;;;;;8.63;7.43;;;;;;;11.50;100.00;99088.75;4974620;28;20031;-77
2023/10/31 00:05:41;;;;;;;9.93;7.22;;;;;;;11.38;100.00;99088.03;4969418;28;20084;-77
2023/10/31 00:08:06;;;;;;;10.27;7.47;;;;;;;11.45;100.00;99087.88;4962605;28;20029;-77
2023/10/31 00:10:31;;;;;;;9.32;7.25;;;;;;;11.27;100.00;99095.13;4969088;28;20361;-77
2023/10/31 00:13:00;;;;;;;7.95;7.00;;;;;;;11.37;100.00;99097.97;4966436;28;20024;-77
2023/10/31 00:15:25;;;;;;;7.90;6.60;;;;;;;11.41;100.00;99092.09;4964772;28;20097;-77
2023/10/31 00:17:50;;;;;;;7.15;6.38;;;;;;;11.43;100.00;99087.28;4957314;28;20038;-77
2023/10/31 00:20:24;;;;;;;5.82;5.25;;;;;;;11.29;100.00;99090.31;4962282;28;20026;-77
2023/10/31 00:22:50;;;;;;;6.38;5.75;;;;;;;11.31;100.00;99093.56;4975783;28;20031;-77
2023/10/31 00:25:15;;;;;;;6.25;5.65;;;;;;;11.28;100.00;99107.53;4968041;28;20488;-78
2023/10/31 00:27:40;;;;;;;7.45;5.85;;;;;;;11.24;100.00;99103.69;4961625;28;20093;-77
2023/10/31 00:30:06;;;;;;;6.78;5.65;;;;;;;11.21;100.00;99101.50;4972759;28;20491;-77
2023/10/31 00:32:32;;;;;;;6.60;5.90;;;;;;;11.19;100.00;99101.75;4965326;28;20062;-78
2023/10/31 00:34:57;;;;;;;6.78;6.15;;;;;;;11.21;100.00;99105.00;4957904;28;20028;-77
2023/10/31 00:37:22;;;;;;;6.60;6.00;;;;;;;11.05;100.00;99120.09;4959795;28;20530;-79
2023/10/31 00:39:48;;;;;;;6.00;5.22;;;;;;;10.94;100.00;99134.44;4958850;28;20039;-78
2023/10/31 00:42:14;;;;;;;5.35;4.85;;;;;;;10.80;100.00;99144.69;4967122;28;20384;-78
2023/10/31 00:44:39;;;;;;;4.57;3.42;;;;;;;10.53;100.00;99137.16;4974299;28;20073;-78
2023/10/31 00:47:05;;;;;;;3.13;2.83;;;;;;;10.21;100.00;99144.84;4975416;28;20034;-78
2023/10/31 00:49:32;;;;;;;2.80;2.35;;;;;;;10.01;100.00;99154.09;4976518;28;20041;-78
2023/10/31 00:51:58;;;;;;;2.42;2.22;;;;;;;9.90;100.00;99171.03;4975678;28;20038;-78
2023/10/31 00:54:23;;;;;;;1.80;1.70;;;;;;;9.69;100.00;99176.75;4975715;28;20027;-78
2023/10/31 00:56:48;;;;;;;2.40;1.60;;;;;;;9.59;100.00;99206.06;4959115;28;20043;-78
2023/10/31 00:59:14;;;;;;;1.30;1.20;;;;;;;9.51;100.00;99212.59;4975035;28;20085;-78
2023/10/31 01:01:39;;;;;;;0.60;0.60;;;;;;;9.36;100.00;99222.94;4970657;28;20070;-78
2023/10/31 01:04:06;;;;;;;1.25;0.60;;;;;;;9.31;100.00;99218.25;4966022;28;20033;-78
2023/10/31 01:06:31;;;;;;;1.13;0.52;;;;;;;9.23;100.00;99240.88;4959810;28;20097;-78
2023/10/31 01:08:58;;;;;;;1.52;0.40;;;;;;;9.13;100.00;99253.22;4964326;28;20117;-78
2023/10/31 01:11:23;;;;;;;0.60;0.50;;;;;;;8.93;100.00;99260.47;4971778;28;20061;-77
2023/10/31 01:13:55;;;;;;;1.23;0.47;;;;;;;8.86;100.00;99275.84;4969149;28;20034;-77
2023/10/31 01:16:20;;;;;;;0.85;0.63;;;;;;;8.78;100.00;99270.78;4965586;28;20028;-78
2023/10/31 01:18:48;;;;;;;2.63;0.90;;;;;;;8.79;100.00;99280.47;4960275;28;20034;-77
2023/10/31 01:21:14;;;;;;;0.68;0.68;;;;;;;8.77;100.00;99277.19;4950211;28;20049;-77
2023/10/31 01:23:39;;;;;;;0.93;0.70;;;;;;;8.71;100.00;99272.72;4957421;28;20055;-78
2023/10/31 01:26:05;;;;;;;2.05;0.65;;;;;;;8.64;100.00;99286.19;4970955;28;20459;-78
2023/10/31 01:28:30;;;;;;;1.35;0.80;;;;;;;8.66;100.00;99297.53;4957312;28;20075;-77
2023/10/31 01:30:55;;;;;;;1.75;0.82;;;;;;;8.66;100.00;99289.50;4972262;28;20498;-77
2023/10/31 01:33:21;;;;;;;2.15;0.75;;;;;;;8.67;100.00;99306.38;4962781;28;20039;-78
2023/10/31 01:35:46;;;;;;;1.65;0.80;;;;;;;8.67;100.00;99319.81;4973220;28;20019;-78
2023/10/31 01:38:14;;;;;;;0.77;0.70;;;;;;;8.68;100.00;99324.13;4958103;28;20097;-78
2023/10/31 01:40:39;;;;;;;2.92;0.70;;;;;;;8.69;100.00;99329.28;4968382;28;20043;-77
2023/10/31 01:43:05;;;;;;;0.82;0.70;;;;;;;8.71;100.00;99332.56;4959352;28;20035;-77
2023/10/31 01:45:30;;;;;;;1.30;1.00;;;;;;;8.84;100.00;99345.00;4970141;28;20105;-77
2023/10/31 01:47:56;;;;;;;1.30;1.20;;;;;;;8.75;100.00;99349.03;4968487;28;20033;-78
2023/10/31 01:50:21;;;;;;;2.45;1.35;;;;;;;8.69;100.00;99358.81;4963788;28;20054;-78
2023/10/31 01:52:46;;;;;;;2.40;1.40;;;;;;;8.73;100.00;99361.84;4961491;28;20027;-77
2023/10/31 01:55:12;;;;;;;3.00;1.30;;;;;;;8.67;100.00;99357.34;4957325;28;20023;-77
2023/10/31 01:57:37;;;;;;;3.50;1.60;;;;;;;8.62;100.00;99366.91;4971607;28;20034;-78
2023/10/31 02:00:04;;;;;;;1.92;1.55;;;;;;;8.65;100.00;99360.28;4942218;28;20439;-78
2023/10/31 02:02:29;;;;;;;1.85;1.65;;;;;;;8.67;100.00;99365.41;4960377;28;20120;-77
2023/10/31 02:04:55;;;;;;;3.92;1.90;;;;;;;8.61;100.00;99370.63;4956503;28;20027;-78
2023/10/31 02:07:22;;;;;;;2.55;1.98;;;;;;;8.70;100.00;99373.84;4932040;28;20029;-78
2023/10/31 02:09:50;;;;;;;3.55;2.58;;;;;;;8.66;100.00;99375.34;4959713;28;20025;-78
2023/10/31 02:12:37;;;;;;;5.78;2.92;;;;;;;8.67;100.00;99378.81;4967262;23;20085;-77
2023/10/31 02:15:03;;;;;;;3.80;3.00;;;;;;;8.65;100.00;99377.19;4949918;29;20106;-77
2023/10/31 02:17:28;;;;;;;5.28;3.28;;;;;;;8.65;100.00;99382.53;4938138;29;20495;-78
2023/10/31 02:19:54;;;;;;;6.72;4.38;;;;;;;8.64;100.00;99388.13;4951133;29;20030;-78
2023/10/31 02:22:19;;;;;;;7.63;5.38;;;;;;;8.64;100.00;99397.03;4944388;28;20495;-76
2023/10/31 02:24:45;;;;;;;7.45;5.80;;;;;;;8.64;100.00;99394.34;4934713;29;20472;-77
2023/10/31 02:27:13;;;;;;;8.02;5.60;;;;;;;8.62;100.00;99401.78;4939433;29;20028;-77
2023/10/31 02:29:39;;;;;;;8.88;7.00;;;;;;;8.67;100.00;99406.47;4943939;29;20039;-78
2023/10/31 02:32:04;;;;;;;9.38;7.10;;;;;;;8.64;100.00;99407.75;4940031;29;20047;-77
2023/10/31 02:34:30;;;;;;;10.35;6.85;;;;;;;8.57;100.00;99416.88;4954984;29;20686;-77
2023/10/31 02:36:55;;;;;;;9.63;6.97;;;;;;;8.57;100.00;99412.34;4948327;29;20027;-78
2023/10/31 02:39:21;;;;;;;;;;;;;;;8.58;100.00;99414.00;4951871;29;20034;-78
2023/10/31 02:41:46;;;;;;;9.93;6.73;;;;;;;8.62;100.00;99417.03;4942083;29;19918;-78
2023/10/31 02:44:11;;;;;;;11.32;7.00;;;;;;;8.64;100.00;99417.66;4925838;29;20037;-78
2023/10/31 02:46:40;;;;;;;;;;;;;;;8.69;100.00;99423.19;4907649;29;20369;-78
2023/10/31 02:49:05;;;;;;;11.70;7.43;;;;;;;8.74;100.00;99417.97;4942169;29;20013;-77
2023/10/31 02:51:30;;;;;;;9.70;7.57;;;;;;;8.69;100.00;99425.03;4935933;29;20043;-78
2023/10/31 02:53:56;;;;;;;13.40;7.85;;;;;;;8.60;100.00;99422.66;4935136;29;20460;-78
2023/10/31 02:56:21;;;;;;;10.57;8.00;;;;;;;8.62;100.00;99423.25;4943250;29;20027;-78
2023/10/31 02:58:49;;;;;;;12.15;8.50;;;;;;;8.61;100.00;99429.66;4939900;29;20016;-77
2023/10/31 03:01:15;;;;;;;11.30;8.65;;;;;;;8.61;100.00;99432.34;4933290;29;20031;-78
2023/10/31 03:03:40;;;;;;;11.15;8.45;;;;;;;8.67;100.00;99432.47;4939457;29;20050;-78
2023/10/31 03:06:06;;;;;;;12.95;8.55;;;;;;;8.74;100.00;99438.63;4934212;29;20032;-78
2023/10/31 03:08:31;;;;;;;;;;;;;;;8.69;100.00;99441.13;4934594;29;20067;-77
2023/10/31 03:10:56;;;;;;;10.83;8.37;;;;;;;8.64;100.00;99439.94;4942397;29;19930;-77
2023/10/31 03:13:22;;;;;;;12.95;9.25;;;;;;;8.70;100.00;99437.41;4934786;29;20500;-77
2023/10/31 03:15:50;;;;;;;12.88;8.80;;;;;;;8.69;100.00;99438.44;4932386;29;20028;-78
2023/10/31 03:18:16;;;;;;;12.38;9.43;;;;;;;8.70;100.00;99437.41;4937103;29;20384;-80
2023/10/31 03:20:43;;;;;;;11.27;9.07;;;;;;;8.71;100.00;99434.53;4935746;29;20046;-80
2023/10/31 03:23:09;;;;;;;13.10;10.45;;;;;;;8.67;100.00;99435.16;4945905;29;20040;-80
2023/10/31 03:25:34;;;;;;;14.57;10.75;;;;;;;8.64;100.00;99439.13;4936744;29;20030;-80
2023/10/31 03:27:59;;;;;;;14.60;10.80;;;;;;;8.73;100.00;99429.75;4933419;29;20027;-80
2023/10/31 03:30:27;;;;;;;14.82;10.90;;;;;;;8.85;100.00;99437.09;4942617;29;20023;-80
2023/10/31 03:32:52;;;;;;;15.50;11.85;;;;;;;8.75;100.00;99434.91;4922942;29;20048;-80
2023/10/31 03:35:18;;;;;;;14.63;11.48;;;;;;;8.73;100.00;99434.28;4946496;29;20038;-80
2023/10/31 03:37:43;;;;;;;16.63;11.52;;;;;;;8.80;100.00;99437.75;4943650;29;20046;-81
2023/10/31 03:40:09;;;;;;;17.45;11.65;;;;;;;8.75;100.00;99434.91;4937874;29;20035;-80
2023/10/31 03:42:34;;;;;;;17.70;12.07;;;;;;;8.82;100.00;99437.50;4946238;29;20424;-80
2023/10/31 03:45:06;;;;;;;16.73;11.73;;;;;;;8.86;100.00;99441.41;4942164;29;20042;-79
2023/10/31 03:47:31;;;;;;;15.10;11.23;;;;;;;9.00;100.00;99442.91;4934571;29;20046;-79
2023/10/31 03:49:57;;;;;;;17.67;11.85;;;;;;;8.91;100.00;99442.38;4935296;29;20027;-80
2023/10/31 03:52:22;;;;;;;21.20;12.43;;;;;;;8.93;100.00;99442.16;4934739;29;20039;-80
2023/10/31 03:54:48;;;;;;;17.70;11.75;;;;;;;8.87;100.00;99449.22;4943394;29;20035;-80
2023/10/31 03:57:13;;;;;;;18.42;12.15;;;;;;;8.84;100.00;99443.50;4939087;29;20027;-80
2023/10/31 03:59:42;;;;;;;18.50;12.23;;;;;;;8.86;100.00;99447.59;4934454;29;20028;-80
2023/10/31 04:02:07;;;;;;;18.77;12.07;;;;;;;8.80;100.00;99443.13;4935198;29;20032;-80
2023/10/31 04:04:33;;;;;;;18.80;12.18;;;;;;;8.78;100.00;99445.19;4943368;29;20031;-80
2023/10/31 04:06:58;;;;;;;20.08;12.05;;;;;;;8.75;100.00;99445.63;4932432;29;20031;-80
2023/10/31 04:09:27;;;;;;;21.15;13.07;;;;;;;8.81;100.00;99450.13;4948119;29;20035;-80
2023/10/31 04:11:52;;;;;;;18.88;12.13;;;;;;;8.83;100.00;99458.75;4917175;29;20047;-80
2023/10/31 04:14:18;;;;;;;20.15;12.45;;;;;;;8.82;100.00;99465.19;4931557;29;20023;-80
2023/10/31 04:16:45;;;;;;;20.05;11.45;;;;;;;8.86;100.00;99466.38;4934281;29;20070;-79
2023/10/31 04:19:12;;;;;;;18.80;10.85;;;;;;;8.92;100.00;99472.72;4937391;29;20039;-80
2023/10/31 04:21:37;;;;;;;18.70;11.35;;;;;;;8.86;100.00;99469.06;4933765;29;20473;-80
2023/10/31 04:24:03;;;;;;;14.82;10.30;;;;;;;8.90;100.00;99475.63;4934293;29;20067;-80
2023/10/31 04:26:29;;;;;;;18.05;10.80;;;;;;;8.87;100.00;99476.06;4943495;29;20057;-80
2023/10/31 04:28:54;;;;;;;16.38;10.25;;;;;;;8.85;100.00;99477.34;4935987;29;20038;-80
2023/10/31 04:31:19;;;;;;;12.35;8.80;;;;;;;8.83;100.00;99480.22;4946319;29;20469;-80
2023/10/31 04:33:45;;;;;;;13.10;8.80;;;;;;;8.81;100.00;99476.97;4939641;29;20031;-80
2023/10/31 04:36:10;;;;;;;12.48;8.60;;;;;;;8.82;100.00;99480.44;4934319;29;20498;-79
2023/10/31 04:38:37;;;;;;;13.85;8.65;;;;;;;8.85;100.00;99482.69;4934419;29;20031;-80
2023/10/31 04:41:03;;;;;;;14.80;8.88;;;;;;;8.77;100.00;99486.47;4935636;29;20039;-80
2023/10/31 04:43:28;;;;;;;11.80;8.25;;;;;;;8.77;100.00;99492.66;4939142;29;20024;-80
2023/10/31 04:45:54;;;;;;;13.77;9.23;;;;;;;8.74;100.00;99489.59;4934548;29;20031;-80
2023/10/31 04:48:19;;;;;;;12.50;8.75;;;;;;;8.73;100.00;99493.31;4947406;29;20392;-80
2023/10/31 04:50:44;;;;;;;13.25;8.85;;;;;;;8.70;100.00;99505.31;4952879;29;20043;-80
2023/10/31 04:53:10;;;;;;;13.82;9.38;;;;;;;8.71;100.00;99508.81;4948586;29;20391;-80
2023/10/31 04:55:40;;;;;;;13.40;9.55;;;;;;;8.73;100.00;99504.06;4943870;29;20191;-83
2023/10/31 04:58:06;;;;;;;10.82;8.27;;;;;;;8.70;100.00;99515.22;4947729;29;20122;-78
2023/10/31 05:00:31;;;;;;;11.10;8.32;;;;;;;8.75;100.00;99526.13;4950074;29;20031;-78
2023/10/31 05:02:58;;;;;;;11.13;8.27;;;;;;;8.78;100.00;99531.06;4942157;29;20465;-82
2023/10/31 05:05:23;;;;;;;13.88;8.90;;;;;;;8.73;100.00;99522.84;4950106;29;20023;-77
2023/10/31 05:07:48;;;;;;;14.10;8.82;;;;;;;8.73;100.00;99530.88;4941865;29;20079;-79
2023/10/31 05:10:14;;;;;;;10.93;8.80;;;;;;;8.72;100.00;99531.91;4932389;29;20469;-81
2023/10/31 05:12:50;;;;;;;11.15;8.23;;;;;;;8.71;100.00;99536.47;5142824;23;20078;-81
2023/10/31 05:15:15;;;;;;;13.13;8.57;;;;;;;8.73;100.00;99546.97;4957039;28;20059;-80
2023/10/31 05:18:18;;;;;;;13.45;8.70;;;;;;;8.76;100.00;99543.88;4957662;29;20373;-80
2023/10/31 05:20:53;;;;;;;12.70;8.30;;;;;;;8.76;100.00;99554.59;4950101;28;20035;-81
2023/10/31 05:23:18;;;;;;;10.98;8.02;;;;;;;8.72;100.00;99553.38;4957168;28;20073;-82
2023/10/31 05:25:53;;;;;;;8.48;6.72;;;;;;;8.69;100.00;99565.38;4954382;28;20024;-81
2023/10/31 05:28:49;;;;;;;6.85;6.07;;;;;;;8.71;100.00;99568.66;4955703;29;20042;-81
2023/10/31 05:31:28;;;;;;;8.75;6.20;;;;;;;8.65;100.00;99564.97;4951893;29;20082;-82
2023/10/31 05:33:53;;;;;;;8.05;5.85;;;;;;;8.67;100.00;99577.34;4950300;29;20031;-81
2023/10/31 05:36:33;;;;;;;;;;;;;;;;;;;;;
2023/10/31 05:38:59;;;;;;;6.88;5.30;;;;;;;8.60;100.00;99590.81;4882158;29;20508;-81
2023/10/31 05:41:24;;;;;;;6.32;4.80;;;;;;;8.61;100.00;99598.66;4916151;29;20088;-81
2023/10/31 05:43:55;;;;;;;7.75;5.35;;;;;;;8.54;100.00;99597.03;4917485;29;20055;-81
2023/10/31 05:46:23;;;;;;;6.32;5.05;;;;;;;8.53;100.00;99592.72;4919448;29;20036;-81
2023/10/31 05:48:54;;;;;;;6.32;4.63;;;;;;;8.50;100.00;99596.63;4920307;29;20108;-81
2023/10/31 05:51:25;;;;;;;7.57;5.00;;;;;;;8.51;100.00;99600.97;4901862;29;20024;-81
2023/10/31 05:53:51;;;;;;;6.22;4.78;;;;;;;8.51;100.00;99611.69;4935357;28;20047;-81
2023/10/31 05:56:19;;;;;;;6.50;4.68;;;;;;;8.44;100.00;99610.88;4957184;28;20027;-81
2023/10/31 05:58:51;;;;;;;6.82;4.70;;;;;;;8.42;100.00;99612.94;4955527;28;20023;-81
2023/10/31 06:01:20;;;;;;;6.32;4.40;;;;;;;8.43;100.00;99619.97;4956842;28;20038;-80
2023/10/31 06:03:52;;;;;;;7.53;4.90;;;;;;;8.43;100.00;99620.78;4958082;28;20106;-80
2023/10/31 06:06:58;;;;;;;7.35;5.07;;;;;;;8.43;100.00;99625.31;4963764;29;20047;-80
2023/10/31 06:09:55;;;;;;;7.40;4.75;;;;;;;8.39;100.00;99629.47;4976797;28;20057;-80
2023/10/31 06:12:23;;;;;;;7.07;4.97;;;;;;;8.37;100.00;99626.16;4965254;28;20844;-80
2023/10/31 06:18:21;;;;;;;6.05;4.90;;;;;;;8.41;100.00;99638.13;4951874;29;20130;-81
2023/10/31 06:23:50;;;;;;;7.40;5.22;;;;;;;8.43;100.00;99639.53;5069927;23;19929;-81
2023/10/31 06:26:15;;;;;;;8.60;5.32;;;;;;;8.42;100.00;99645.13;4956089;28;20027;-81
2023/10/31 06:28:41;;;;;;;8.27;5.70;;;;;;;8.39;100.00;99645.56;4985103;23;20049;-81
2023/10/31 06:31:06;;;;;;;10.32;6.40;;;;;;;8.40;100.00;99652.56;4955656;28;20066;-81
2023/10/31 06:33:31;;;;;;;9.55;6.85;;;;;;;8.41;100.00;99659.56;4956026;28;20418;-81
2023/10/31 06:35:57;;;;;;;12.77;7.47;;;;;;;8.43;100.00;99654.81;4954920;28;20027;-80
2023/10/31 06:38:22;;;;;;;9.60;7.55;;;;;;;8.45;100.00;99650.09;4954049;29;20041;-80
2023/10/31 06:40:51;;;;;;;10.85;8.25;;;;;;;8.44;100.00;99665.34;4957128;28;20037;-79
2023/10/31 06:43:16;;;;;;;10.50;7.15;;;;;;;8.46;100.00;99662.47;4955532;28;20518;-79
2023/10/31 06:45:41;;;;;;;9.90;7.10;;;;;;;8.46;100.00;99663.25;4957089;28;20031;-80
2023/10/31 06:48:09;;;;;;;10.18;7.20;;;;;;;8.53;100.00;99665.94;4957499;29;20024;-80
2023/10/31 06:50:34;;;;;;;10.45;7.05;;;;;;;8.49;100.00;99670.09;4956968;29;20152;-79
2023/10/31 07:04:07;;;;;;;9.00;6.30;;;;;;;8.44;100.00;99691.34;5064091;23;20133;-81
2023/10/31 07:06:38;;;;;;;7.22;5.10;;;;;;;8.43;100.00;99695.88;4968068;28;20035;-80
2023/10/31 07:09:05;;;;;;;6.43;4.75;;;;;;;8.44;100.00;99696.72;4969869;28;20030;-81
2023/10/31 07:11:59;;;;;;;6.05;4.88;;;;;;;8.50;100.00;99703.91;5528421;23;20054;-80
2023/10/31 07:14:53;;;;;;;5.07;4.00;;;;;;;8.55;100.00;99703.31;4943404;28;20047;-80
2023/10/31 07:17:18;;;;;;;4.97;4.28;;;;;;;8.61;100.00;99702.44;4954397;28;21207;-80
2023/10/31 07:23:05;;;;;;;6.43;4.20;;;;;;;9.21;100.00;99712.88;4970482;28;20607;-80
2023/10/31 07:26:18;;;;;;;5.18;4.15;;;;;;;9.43;100.00;99715.22;4954564;28;20031;-80
2023/10/31 07:29:01;;;;;;;6.38;4.38;;;;;;;9.42;100.00;99713.56;4966490;28;20114;-81
2023/10/31 07:31:52;;;;;;;6.00;4.60;;;;;;;9.42;100.00;99721.63;4962209;28;20035;-80
2023/10/31 07:34:54;;;;;;;5.47;4.57;;;;;;;9.90;100.00;99724.75;4962187;28;20030;-80
2023/10/31 07:37:20;;;;;;;7.68;5.03;;;;;;;10.05;100.00;99725.25;4962509;28;20042;-80
2023/10/31 07:40:16;;;;;;;6.45;4.40;;;;;;;10.84;100.00;99729.19;4960527;28;20049;-81
2023/10/31 07:42:53;;;;;;;6.15;4.70;;;;;;;11.00;100.00;99719.66;4953746;28;20031;-81
2023/10/31 07:45:19;;;;;;;6.75;4.93;;;;;;;11.11;100.00;99721.59;4953239;28;20486;-81
2023/10/31 07:47:56;;;;;;;7.72;5.30;;;;;;;11.60;100.00;99721.50;4958977;28;20023;-80
2023/10/31 07:50:22;;;;;;;6.88;5.22;;;;;;;11.35;99.88;99722.47;4971798;28;20030;-80
2023/10/31 07:52:53;;;;;;;8.10;5.85;;;;;;;12.04;95.63;99717.66;4952986;28;20086;-81
2023/10/31 07:56:15;;;;;;;7.47;5.80;;;;;;;11.96;94.65;99725.03;4954380;28;20103;-80
2023/10/31 08:02:02;;;;;;;8.63;6.13;;;;;;;12.65;91.27;99736.28;4960581;28;20045;-81
2023/10/31 08:05:14;;;;;;;9.50;6.78;;;;;;;12.25;93.32;99738.66;4957232;28;20031;-81
2023/10/31 08:07:55;;;;;;;8.80;6.82;;;;;;;11.40;98.18;99732.56;4970106;28;20034;-80
2023/10/31 08:13:57;;;;;;;9.32;6.78;;;;;;;9.95;100.00;99738.38;4953315;28;20110;-81
2023/10/31 08:17:09;;;;;;;10.32;7.70;;;;;;;9.99;100.00;99740.38;4961532;28;20476;-80
2023/10/31 08:19:56;;;;;;;10.55;7.72;;;;;;;10.06;100.00;99751.09;4977242;28;20067;-80
2023/10/31 08:22:31;;;;;;;11.52;7.78;;;;;;;9.96;100.00;99745.41;4968496;28;20030;-81
2023/10/31 08:25:02;;;;;;;11.45;7.68;;;;;;;9.98;100.00;99743.31;4965395;28;20082;-80
2023/10/31 08:28:02;;;;;;;11.98;7.82;;;;;;;10.05;100.00;99754.84;4966182;28;20597;-80
2023/10/31 08:30:27;;;;;;;11.52;8.25;;;;;;;10.08;100.00;99757.06;4964733;28;20039;-80
2023/10/31 08:32:53;;;;;;;11.73;8.35;;;;;;;9.95;100.00;99744.59;4966554;28;20039;-80
2023/10/31 08:35:18;;;;;;;11.93;8.93;;;;;;;10.05;100.00;99764.75;4965788;28;20019;-80
2023/10/31 08:37:53;;;;;;;12.25;8.73;;;;;;;10.22;100.00;99771.22;4959708;28;20090;-80
2023/10/31 08:40:19;;;;;;;13.05;9.60;;;;;;;10.32;100.00;99766.16;4957644;28;20475;-80
2023/10/31 08:42:54;;;;;;;13.15;9.10;;;;;;;10.32;100.00;99766.16;4956378;28;20030;-81
2023/10/31 08:45:20;;;;;;;12.70;8.73;;;;;;;10.67;100.00;99772.88;4957140;28;20435;-80
2023/10/31 08:47:54;;;;;;;13.35;9.07;;;;;;;10.57;100.00;99778.78;4973835;28;20487;-81
2023/10/31 08:50:20;;;;;;;13.45;9.40;;;;;;;10.60;100.00;99774.78;4973600;28;20022;-81
2023/10/31 08:53:16;;;;;;;13.00;9.88;;;;;;;10.63;100.00;99787.00;4960793;28;20027;-80
2023/10/31 08:55:56;;;;;;;11.68;9.15;;;;;;;10.72;100.00;99782.94;4957431;28;20031;-80
2023/10/31 09:34:19;;;;;;;12.20;8.60;;;;;;;11.27;100.00;99835.97;4934961;29;20510;-80
2023/10/31 09:43:32;;;;;;;11.35;8.60;;;;;;;11.42;100.00;99842.81;4928651;29;20032;-81
2023/10/31 09:46:10;;;;;;;12.07;8.95;;;;;;;11.57;100.00;99850.50;4919484;29;20099;-80
2023/10/31 09:49:11;;;;;;;12.50;8.48;;;;;;;11.46;100.00;99860.19;4920132;29;20034;-80
2023/10/31 09:52:13;;;;;;;10.38;8.20;;;;;;;11.57;100.00;99847.78;4936224;29;20036;-80
2023/10/31 10:21:55;;;;;;;8.43;6.55;;;;;;;12.33;98.84;99880.53;4975068;28;20038;-81
2023/10/31 10:39:56;;;;;;;10.25;6.13;;;;;;;11.91;100.00;99924.50;5308381;23;20846;-80
2023/10/31 10:42:48;;;;;;;12.15;7.00;;;;;;;12.11;100.00;99928.81;4954282;28;20031;-80
2023/10/31 10:45:15;;;;;;;10.95;6.97;;;;;;;12.31;100.00;99925.00;4964749;23;20038;-80
2023/10/31 10:47:41;;;;;;;11.23;6.35;;;;;;;12.48;100.00;99925.97;4964468;28;20026;-80
2023/10/31 10:50:07;;;;;;;9.02;5.75;;;;;;;13.17;96.21;99932.66;4954596;28;20392;-81
2023/10/31 10:53:01;;;;;;;11.07;6.50;;;;;;;13.33;95.01;99923.81;4989940;23;20058;-81
2023/10/31 10:55:30;;;;;;;10.95;6.32;;;;;;;13.19;95.00;99930.53;4957156;28;20030;-80
2023/10/31 10:58:21;;;;;;;9.35;6.93;;;;;;;12.71;95.44;99940.53;4956375;28;20069;-81
2023/10/31 11:01:21;;;;;;;9.82;6.30;;;;;;;12.75;95.44;99933.63;4942888;28;20066;-81
2023/10/31 11:07:18;;;;;;;7.90;6.22;;;;;;;12.70;95.56;99949.72;4973009;28;20449;-81
2023/10/31 11:10:02;;;;;;;8.75;5.47;;;;;;;13.07;93.70;99944.06;4973716;28;20038;-81
2023/10/31 11:12:53;;;;;;;7.35;6.55;;;;;;;13.04;91.96;99944.56;4973380;28;20035;-81
2023/10/31 11:15:31;;;;;;;9.23;5.80;;;;;;;13.44;92.16;99941.09;4967439;28;20038;-81
2023/10/31 11:17:57;;;;;;;8.07;6.15;;;;;;;13.57;91.36;99947.31;4973343;28;20035;-81
2023/10/31 11:24:23;;;;;;;6.72;5.82;;;;;;;14.30;85.20;99954.91;4970836;28;20094;-81
2023/10/31 11:26:58;;;;;;;8.27;6.13;;;;;;;14.33;85.98;99952.53;4971221;28;20034;-81
2023/10/31 11:29:30;;;;;;;9.02;5.95;;;;;;;15.34;78.91;99960.06;4973182;28;20438;-82
2023/10/31 11:31:58;;;;;;;9.90;5.95;;;;;;;14.48;81.43;99967.38;4972821;28;20090;-82
2023/10/31 11:35:07;;;;;;;7.47;6.10;;;;;;;13.80;85.47;99954.53;4973175;28;20427;-82
2023/10/31 11:38:13;;;;;;;8.60;6.03;;;;;;;14.48;83.52;99959.25;4967094;28;20069;-82
2023/10/31 11:40:59;;;;;;;9.75;6.13;;;;;;;15.04;81.34;99955.81;4972483;28;20071;-81
2023/10/31 11:43:26;;;;;;;7.25;6.05;;;;;;;15.16;78.95;99956.56;4966748;28;20034;-82
2023/10/31 11:49:23;;;;;;;7.65;6.40;;;;;;;14.77;80.41;99970.88;5379714;23;20392;-82
2023/10/31 11:51:55;;;;;;;9.30;7.68;;;;;;;14.47;81.93;99968.47;4965107;28;20051;-82
2023/10/31 11:54:20;;;;;;;12.13;8.18;;;;;;;14.01;85.00;99973.88;4963518;28;20029;-82
2023/10/31 11:56:55;;;;;;;12.85;10.10;;;;;;;13.59;87.60;99972.25;4958694;28;20038;-82
2023/10/31 11:59:54;;;;;;;14.07;11.07;;;;;;;12.74;90.63;99983.28;4976061;28;20027;-82
2023/10/31 12:02:58;;;;;;;14.68;11.80;;;;;;;12.55;93.60;99986.06;4966540;28;20027;-82
2023/10/31 12:05:23;;;;;;;14.73;10.60;;;;;;;13.05;90.78;99992.13;4957602;28;20027;-82
2023/10/31 12:08:10;;;;;;;17.10;11.23;;;;;;;12.89;91.62;99993.63;4969665;28;20038;-81
2023/10/31 12:10:51;;;;;;;15.65;11.30;;;;;;;12.66;93.08;99986.34;4965604;28;20057;-82
2023/10/31 12:19:23;;;;;;;14.80;10.75;;;;;;;13.33;89.24;99991.38;4964539;28;20085;-81
2023/10/31 12:21:49;;;;;;;13.32;10.10;;;;;;;14.95;81.86;99994.22;4958251;28;20039;-82
2023/10/31 12:24:30;;;;;;;14.77;10.10;;;;;;;15.45;76.55;99984.31;4958225;28;20555;-82
2023/10/31 12:26:56;;;;;;;15.02;10.80;;;;;;;14.44;79.40;99990.63;4973860;23;20156;-82
2023/10/31 12:29:36;;;;;;;17.63;11.07;;;;;;;13.52;84.25;99982.38;4905005;29;20392;-82
2023/10/31 12:32:02;;;;;;;16.95;11.57;;;;;;;12.72;89.43;99997.03;4937948;29;20031;-82
2023/10/31 12:34:34;;;;;;;18.98;11.27;;;;;;;12.58;89.95;100004.50;4937653;29;20047;-81
2023/10/31 12:37:03;;;;;;;16.73;11.25;;;;;;;12.34;92.42;99997.41;4927255;28;20492;-81
2023/10/31 12:39:29;;;;;;;17.05;11.40;;;;;;;12.25;93.29;99995.03;4955033;29;20039;-81
2023/10/31 12:41:54;;;;;;;16.67;11.65;;;;;;;12.37;93.43;100005.88;4939772;29;20372;-82
2023/10/31 12:44:24;;;;;;;16.55;12.43;;;;;;;12.19;94.30;100001.31;4921649;29;20079;-82
2023/10/31 12:46:55;;;;;;;16.98;10.88;;;;;;;12.07;96.14;99995.06;4938701;29;20027;-82
2023/10/31 12:49:21;;;;;;;17.58;11.02;;;;;;;12.20;97.25;100005.66;4937149;29;20051;-81
2023/10/31 12:51:57;;;;;;;16.80;11.45;;;;;;;12.34;96.07;100005.50;4939005;29;20031;-81
2023/10/31 12:54:36;;;;;;;15.98;11.30;;;;;;;12.30;95.64;100007.81;4937726;29;20028;-82
2023/10/31 12:57:07;;;;;;;19.23;11.82;;;;;;;12.49;94.68;100003.19;4937703;29;20480;-82
2023/10/31 12:59:36;;;;;;;18.08;11.30;;;;;;;12.13;94.72;100002.25;4937324;29;20038;-82
2023/10/31 13:02:01;;;;;;;18.95;11.07;;;;;;;12.43;94.18;99996.84;4938239;29;20030;-82
2023/10/31 13:04:27;;;;;;;16.90;11.25;;;;;;;13.01;92.02;100001.75;4921199;29;20111;-82
2023/10/31 13:07:26;;;;;;;18.20;10.48;;;;;;;14.23;84.26;99995.66;4905489;29;20028;-82
2023/10/31 13:09:51;;;;;;;16.58;9.85;;;;;;;15.12;78.50;100009.63;4933124;29;20027;-81
2023/10/31 13:12:17;;;;;;;19.58;10.57;;;;;;;14.93;78.42;99996.34;4905468;29;20104;-82
2023/10/31 13:14:48;;;;;;;17.33;10.43;;;;;;;14.45;78.78;100003.09;4937070;29;20028;-81
2023/10/31 13:17:31;;;;;;;15.98;10.65;;;;;;;13.54;83.51;100010.00;4937656;29;20055;-81
2023/10/31 13:19:56;;;;;;;16.52;10.55;;;;;;;13.21;86.98;100011.41;4932222;29;20489;-82
2023/10/31 13:26:25;;;;;;;16.13;9.90;;;;;;;13.88;81.65;100012.84;4932612;29;20054;-81
2023/10/31 13:29:02;;;;;;;14.87;8.90;;;;;;;14.67;77.13;100004.00;4918333;29;20445;-81
2023/10/31 13:31:28;;;;;;;13.27;8.90;;;;;;;15.11;74.29;100016.94;4927908;29;20299;-81
2023/10/31 13:34:32;;;;;;;12.32;8.88;;;;;;;14.57;76.01;100022.81;4904076;29;20027;-81
2023/10/31 13:43:54;;;;;;;14.55;8.98;;;;;;;14.96;76.19;100032.94;4918979;29;20083;-81
2023/10/31 13:46:19;;;;;;;15.00;8.32;;;;;;;15.08;74.80;100039.13;4918392;29;20115;-81
2023/10/31 13:51:50;;;;;;;12.98;8.95;;;;;;;13.87;80.58;100054.50;4912385;29;20445;-81
2023/10/31 13:54:27;;;;;;;16.25;8.85;;;;;;;13.41;83.74;100052.44;4917290;29;20047;-80
2023/10/31 13:57:11;;;;;;;16.15;9.38;;;;;;;12.94;86.95;100063.16;4910173;29;20039;-81
2023/10/31 14:03:18;;;;;;;15.15;8.40;;;;;;;12.51;88.33;100065.88;4860146;29;20078;-81
2023/10/31 14:18:02;;;;;;;14.85;9.10;;;;;;;11.76;95.44;100075.06;4955244;29;20620;-80
2023/10/31 14:23:55;;;;;;;14.73;8.60;;;;;;;11.61;96.04;100078.97;5128275;23;20052;-81
2023/10/31 14:26:59;;;;;;;16.05;8.35;;;;;;;11.65;96.36;100080.16;4912630;29;20035;-80
2023/10/31 14:47:54;;;;;;;13.98;7.43;;;;;;;11.68;93.12;100095.06;5807562;23;20102;-78